Terminal Aerodrome Forecast
Issued by NWS

Home | Current Version | Previous Version | Text Only | Print | Product List | Glossary On
Versions: 1 2 3 4 5 6 7 8 9 10 11 12 13 14
000
FTUS42 KGSP 270534
TAFAND
TAF
KAND 270534Z 2706/2806 18003KT P6SM VCSH BKN045
     FM271000 VRB02KT 5SM BR OVC010
      TEMPO 2710/2712 OVC007
     FM271400 VRB02KT P6SM VCSH BKN050 PROB30 2716/2722 4SM -TSRA
      OVC025CB
     FM272200 23006KT P6SM VCTS BKN060CB PROB30 2722/2804 4SM -TSRA
      OVC025CB=

USA.gov is the U.S. government's official web portal to all federal, state and local government web resources and services.